• Join FlightAware (Why Join?)
  • Login
  • US Flag 
05:33AM EST


 

Airport Tracker/Info


-or-


 

Live Flight TrackerFlight Track Log ✈ UAL822 ✈ 06-May-2013 ✈ KDFW - KORD

Flight Track Log - Related Links

Times and Time Zones

All times are in EDT time to prevent confusion due to time zone crossing. See the UAL822 flight status page for this flight to view local times or setup timezone preferences in your user account.

Time Position Orientation Groundspeed Altitude Reporting Facility
EDT Latitude Longitude Course Direction KTS MPH feet Rate Location/Type
10:58AM 32.9167 -97.0333 North 167 192 1,300  Level Dallas / Fort Worth TRACON
11:00AM 33.0290 -96.9362 112° Southeast  Level Estimated
11:00AM 33.0167 -97.0167 112° Southeast 246 283 5,000  Level Dallas / Fort Worth TRACON
11:01AM 32.9403 -96.8000 North  Level FlightAware Approximate
11:01AM 33.0833 -97.0167 360° North 253 291 8,400  Level Dallas / Fort Worth TRACON
11:02AM 33.0513 -96.8000 North  Level FlightAware Approximate
11:03AM 33.1621 -96.8079 356° North  Level FlightAware Approximate
11:03AM 33.2218 -96.8947 36° Northeast  Level Estimated
11:04AM 33.2729 -96.8167 North  Level FlightAware Approximate
11:05AM 33.3769 -96.8661 36° Northeast 345 397 17,000  Level Fort Worth Center
11:06AM 33.4664 -96.8158 25° Northeast 345 397 19,000 2,280 Climbing Fort Worth Center
11:07AM 33.5603 -96.7553 28° Northeast 364 419 21,600 2,100 Climbing Fort Worth Center
11:08AM 33.6517 -96.6872 32° Northeast 373 429 23,200 1,560 Climbing Fort Worth Center
11:10AM 33.8458 -96.3389 36° Northeast  Level Estimated
11:10AM 33.8342 -96.5283 36° Northeast 400 460 26,400  Level Fort Worth Center
11:11AM 33.9864 -96.3939 36° Northeast 426 490 28,900 1,440 Climbing Kansas City Center
11:12AM 34.0269 -96.3608 34° Northeast 415 478 29,300 1,140 Climbing Fort Worth Center
11:14AM 34.2006 -96.1912 32° Northeast  Level FlightAware Approximate
11:14AM 34.2900 -96.1322 32° Northeast 451 519 32,600  Level Kansas City Center
11:15AM 34.3314 -96.0931 38° Northeast 448 516 33,300 1,440 Climbing Fort Worth Center
11:16AM 34.4325 -96.0061 35° Northeast 448 516 34,500 1,080 Climbing Fort Worth Center
11:17AM 34.6133 -95.8478 36° Northeast 451 519 36,400 840 Climbing Kansas City Center
11:18AM 34.7131 -95.7617 35° Northeast 446 513 37,000 240 Climbing Kansas City Center
11:19AM 34.8042 -95.6803 36° Northeast 441 507 37,000  Level Kansas City Center
11:21AM 35.0011 -95.5108 35° Northeast 441 507 37,000  Level Memphis Center
11:22AM 35.0986 -95.4228 36° Northeast 441 507 37,000  Level Memphis Center
11:23AM 35.1958 -95.3347 36° Northeast 441 507 37,000  Level Memphis Center
11:24AM 35.2931 -95.2489 36° Northeast 436 502 37,000  Level Memphis Center
11:25AM 35.3925 -95.1631 35° Northeast 436 502 37,000  Level Memphis Center
11:26AM 35.4875 -95.0742 37° Northeast 431 496 37,000  Level Memphis Center
11:29AM 35.7214 -94.8606 37° Northeast 432 497 37,000  Level Kansas City Center
11:29AM 35.7767 -94.8117 36° Northeast 426 490 37,000  Level Memphis Center
11:31AM 35.9728 -94.6325 36° Northeast 426 490 37,000  Level Memphis Center
11:32AM 36.0697 -94.5425 37° Northeast 426 490 37,100  Climbing Memphis Center
11:33AM 36.1644 -94.4547 37° Northeast 426 490 37,000 -60 Descending Memphis Center
11:35AM 36.3206 -94.3108 37° Northeast 433 498 37,000  Level Kansas City Center
11:36AM 36.4161 -94.2217 37° Northeast 431 496 37,000  Level Kansas City Center
11:37AM 36.5139 -94.1317 36° Northeast 436 502 37,000  Level Kansas City Center
11:39AM 36.6454 -93.9924 37° Northeast  Level FlightAware Approximate
11:40AM 36.8208 -93.8436 36° Northeast 432 497 37,000  Level Kansas City Center
11:41AM 36.9169 -93.7533 37° Northeast 422 486 37,100  Climbing Kansas City Center
11:42AM 37.0117 -93.6628 37° Northeast 426 490 37,000 -60 Descending Kansas City Center
11:44AM 37.1291 -93.5489 38° Northeast  Level FlightAware Approximate
11:44AM 37.1997 -93.4842 38° Northeast 424 488 37,000  Level Kansas City Center
11:45AM 37.2933 -93.3956 37° Northeast 421 484 37,000  Level Kansas City Center
11:46AM 37.2814 -93.3966 36° Northeast  Level FlightAware Approximate
11:47AM 37.4000 -93.2861 37° Northeast  Level FlightAware Approximate
11:47AM 37.5047 -93.1997 37° Northeast 425 489 37,000  Level Kansas City Center
11:49AM 37.6058 -93.0963 39° Northeast  Level FlightAware Approximate
11:50AM 37.7944 -92.9283 37° Northeast 431 496 37,000  Level Kansas City Center
11:52AM 37.9894 -92.7464 36° Northeast 432 497 37,000  Level Kansas City Center
11:54AM 38.0878 -92.6522 37° Northeast 437 503 37,000  Level Kansas City Center
11:56AM 38.2225 -92.5119 37° Northeast  Level FlightAware Approximate
11:56AM 38.2883 -92.4644 36° Northeast 438 504 37,000  Level Kansas City Center
11:57AM 38.4056 -92.3517 37° Northeast 436 502 37,000 -300 Level Kansas City Center
11:59AM 38.5986 -92.1664 37° Northeast 429 494 36,100 -1,200 Descending Kansas City Center
12:00PM 38.6914 -92.0775 37° Northeast 418 481 33,400 -1,680 Descending Kansas City Center
12:02PM 38.8856 -91.8897 37° Northeast 436 502 31,000 -780 Descending Kansas City Center
12:03PM 38.9850 -91.7944 37° Northeast 444 511 31,000  Level Kansas City Center
12:05PM 39.1323 -91.6346 38° Northeast  Level FlightAware Approximate
12:06PM 39.3147 -91.4722 37° Northeast 441 507 31,000  Level Chicago Center
12:07PM 39.3892 -91.3983 37° Northeast 446 513 31,000 -1,440 Level Kansas City Center
12:09PM 39.6008 -91.1892 37° Northeast 435 501 27,000 -1,320 Descending Kansas City Center
12:10PM 39.6981 -91.0936 37° Northeast 434 499 27,000  Level Kansas City Center
12:12PM 39.7597 -91.0073 37° Northeast  Level FlightAware Approximate
12:12PM 39.7905 -90.9765 37° Northeast  Level FlightAware Approximate
12:12PM 39.8992 -90.8911 37° Northeast 440 506 27,000  Level Kansas City Center
12:13PM 39.9950 -90.7933 38° Northeast 439 505 27,000  Level Kansas City Center
12:14PM 40.0917 -90.6950 38° Northeast 439 505 27,000  Level Kansas City Center
12:16PM 40.2281 -90.5569 38° Northeast 441 507 27,000  Level Chicago Center
12:17PM 40.3086 -90.4576 39° Northeast  Level FlightAware Approximate
12:18PM 40.4797 -90.2992 37° Northeast 440 506 27,000  Level Kansas City Center
12:19PM 40.5178 -90.2594 38° Northeast 438 504 27,000  Level Chicago Center
12:20PM 40.6278 -90.1458 38° Northeast 441 507 27,000  Level Chicago Center
12:21PM 40.7244 -90.0461 38° Northeast 443 510 27,000  Level Chicago Center
12:22PM 40.8231 -89.9447 38° Northeast 449 517 27,000 -960 Level Chicago Center
12:24PM 40.9098 -89.8237 37° Northeast  Level FlightAware Approximate
12:24PM 41.0078 -89.7497 39° Northeast 435 501 24,100  Level Chicago Center
12:26PM 41.1500 -89.5764 90° East  Level FlightAware Approximate
12:26PM 41.1922 -89.5122 90° East 431 496 22,100  Level Chicago Center
12:27PM 41.2447 -89.3794 62° Northeast 411 473 19,900 -2,160 Descending Chicago Center
12:28PM 41.2975 -89.2492 62° Northeast 403 464 17,700 -2,100 Descending Chicago Center
12:29PM 41.3456 -89.1247 63° Northeast 382 440 15,600 -2,100 Descending Chicago Center
12:30PM 41.3944 -89.0058 61° Northeast 369 425 13,400 -2,100 Descending Chicago Center
12:31PM 41.4400 -88.8881 63° Northeast 362 417 11,300 -780 Descending Chicago Center
12:33PM 41.5333 -88.6667 61° Northeast 286 329 11,000 -180 Descending Chicago TRACON
12:35PM 41.5994 -88.4686 66° East  Level FlightAware Approximate
12:35PM 41.6186 -88.4911 66° East 286 329 10,700  Level Chicago Center
12:36PM 41.6597 -88.4031 58° Northeast 282 325 9,200 -1,500 Descending Chicago Center
12:37PM 41.7003 -88.3178 57° Northeast 275 316 7,700 -1,680 Descending Chicago Center
12:38PM 41.7483 -88.2175 57° Northeast 269 310 5,800 -1,620 Descending Chicago Center
12:39PM 41.7867 -88.1356 58° Northeast 264 304 4,400 -900 Descending Chicago Center
12:40PM 41.8247 -88.0553 58° Northeast 260 299 4,000 -840 Descending Chicago Center
12:43PM 41.9333 -87.9333 40° Northeast 127 146 1,300 -1,020 Descending Chicago TRACON